createdAt,value
2023-05-11T00:01:34.741Z,13.03
2023-05-11T00:04:22.297Z,13.01
2023-05-11T00:07:11.717Z,13.01
2023-05-11T00:09:59.255Z,13.00
2023-05-11T00:12:47.354Z,13.00
2023-05-11T00:15:35.211Z,12.98
2023-05-11T00:18:23.585Z,12.96
2023-05-11T00:21:11.555Z,12.93
2023-05-11T00:24:00.872Z,12.91
2023-05-11T00:26:48.641Z,12.86
2023-05-11T00:29:36.583Z,12.84
2023-05-11T00:32:24.576Z,12.82
2023-05-11T00:35:13.406Z,12.78
2023-05-11T00:38:01.195Z,12.77
2023-05-11T00:40:51.054Z,12.78
2023-05-11T00:43:38.663Z,12.78
2023-05-11T00:46:27.752Z,12.78
2023-05-11T00:49:17.285Z,12.78
2023-05-11T00:52:05.408Z,12.77
2023-05-11T00:54:53.050Z,12.75
2023-05-11T00:57:42.550Z,12.74
2023-05-11T01:00:30.628Z,12.74
2023-05-11T01:03:19.433Z,12.72
2023-05-11T01:06:11.583Z,12.70
2023-05-11T01:09:07.274Z,12.68
2023-05-11T01:12:06.607Z,12.68
2023-05-11T01:15:03.305Z,12.67
2023-05-11T01:17:57.022Z,12.65
2023-05-11T01:20:47.949Z,12.65
2023-05-11T01:24:13.182Z,12.64
2023-05-11T01:27:33.192Z,12.62
2023-05-11T01:30:30.812Z,12.62
2023-05-11T01:33:22.773Z,12.60
2023-05-11T01:36:12.637Z,12.59
2023-05-11T01:39:05.495Z,12.57
2023-05-11T01:41:54.659Z,12.57
2023-05-11T01:44:49.263Z,12.56
2023-05-11T01:47:39.689Z,12.53
2023-05-11T01:50:27.868Z,12.52
2023-05-11T01:53:16.728Z,12.51
2023-05-11T01:56:05.564Z,12.48
2023-05-11T01:58:55.292Z,12.49
2023-05-11T02:01:43.786Z,12.47
2023-05-11T02:04:35.488Z,12.46
2023-05-11T02:07:25.522Z,12.46
2023-05-11T02:10:16.272Z,12.40
2023-05-11T02:13:06.274Z,12.41
2023-05-11T02:15:57.337Z,12.38
2023-05-11T02:18:46.090Z,12.38
2023-05-11T02:21:37.385Z,12.37
2023-05-11T02:24:26.225Z,12.38
2023-05-11T02:27:14.090Z,12.35
2023-05-11T02:30:01.785Z,12.35
2023-05-11T02:32:52.979Z,12.35
2023-05-11T02:35:44.847Z,12.33
2023-05-11T02:38:35.889Z,12.31
2023-05-11T02:41:28.832Z,12.29
2023-05-11T02:44:18.725Z,12.27
2023-05-11T02:47:12.437Z,12.25
2023-05-11T02:50:04.161Z,12.23
2023-05-11T02:52:55.871Z,12.21
2023-05-11T02:55:45.268Z,12.20
2023-05-11T02:58:34.020Z,12.18
2023-05-11T03:01:22.550Z,12.17
2023-05-11T03:04:10.493Z,12.14
2023-05-11T03:06:58.549Z,12.11
2023-05-11T03:09:46.519Z,12.11
2023-05-11T03:12:36.376Z,12.09
2023-05-11T03:15:25.178Z,12.07
2023-05-11T03:18:14.257Z,12.05
2023-05-11T03:21:03.371Z,12.04
2023-05-11T03:23:51.786Z,12.03
2023-05-11T03:26:40.521Z,12.01
2023-05-11T03:29:32.808Z,11.95
2023-05-11T03:32:20.652Z,11.95
2023-05-11T03:35:09.904Z,11.95
2023-05-11T03:37:59.930Z,11.96
2023-05-11T03:40:48.763Z,11.95
2023-05-11T03:43:39.056Z,11.94
2023-05-11T03:46:29.770Z,11.93
2023-05-11T03:49:19.614Z,11.92
2023-05-11T03:52:08.337Z,11.92
2023-05-11T03:54:56.427Z,11.90
2023-05-11T03:57:44.886Z,11.86
2023-05-11T04:00:32.992Z,11.86
2023-05-11T04:03:22.485Z,11.85
2023-05-11T04:06:10.774Z,11.84
2023-05-11T04:08:58.853Z,11.82
2023-05-11T04:11:46.854Z,11.83
2023-05-11T04:14:34.945Z,11.81
2023-05-11T04:17:22.845Z,11.81
2023-05-11T04:20:12.616Z,11.79
2023-05-11T04:23:01.077Z,11.80
2023-05-11T04:25:53.816Z,11.78
2023-05-11T04:28:41.788Z,11.77
2023-05-11T04:31:30.413Z,11.78
2023-05-11T04:34:18.906Z,11.77
2023-05-11T04:37:08.035Z,11.79
2023-05-11T04:39:55.707Z,11.80
2023-05-11T04:42:43.566Z,11.79
2023-05-11T04:45:31.706Z,11.76
2023-05-11T04:48:20.832Z,11.78
2023-05-11T04:51:09.329Z,11.80
2023-05-11T04:53:58.693Z,11.80
2023-05-11T04:56:46.355Z,11.78
2023-05-11T04:59:34.545Z,11.80
2023-05-11T05:02:22.672Z,11.82
2023-05-11T05:05:11.239Z,11.84
2023-05-11T05:07:58.944Z,11.85
2023-05-11T05:10:48.988Z,11.87
2023-05-11T05:13:36.609Z,11.88
2023-05-11T05:16:24.532Z,11.90
2023-05-11T05:19:13.216Z,11.94
2023-05-11T05:22:01.031Z,11.95
2023-05-11T05:24:49.124Z,11.96
2023-05-11T05:27:38.470Z,11.95
2023-05-11T05:30:26.553Z,11.98
2023-05-11T05:33:14.443Z,12.01
2023-05-11T05:36:02.773Z,12.00
2023-05-11T05:38:50.783Z,12.01
2023-05-11T05:41:38.730Z,12.02
2023-05-11T05:44:27.950Z,12.02
2023-05-11T05:47:15.905Z,12.03
2023-05-11T05:50:03.926Z,12.05
2023-05-11T05:52:52.040Z,12.06
2023-05-11T05:55:39.995Z,12.06
2023-05-11T05:58:28.181Z,12.06
2023-05-11T06:01:17.564Z,12.06
2023-05-11T06:04:05.722Z,12.07
2023-05-11T06:06:53.624Z,12.10
2023-05-11T06:09:41.558Z,12.11
2023-05-11T06:12:29.626Z,12.14
2023-05-11T06:15:17.741Z,12.17
2023-05-11T06:18:07.182Z,12.21
2023-05-11T06:20:54.882Z,12.24
2023-05-11T06:23:42.774Z,12.30
2023-05-11T06:26:30.893Z,12.32
2023-05-11T06:29:22.269Z,12.37
2023-05-11T06:32:13.648Z,12.41
2023-05-11T06:35:02.742Z,12.44
2023-05-11T06:37:50.745Z,12.48
2023-05-11T06:40:38.668Z,12.51
2023-05-11T06:43:26.793Z,12.54
2023-05-11T06:46:17.658Z,12.58
2023-05-11T06:49:05.780Z,12.61
2023-05-11T06:51:56.783Z,12.69
2023-05-11T06:54:45.126Z,12.74
2023-05-11T06:57:33.160Z,12.82
2023-05-11T07:00:21.714Z,12.87
2023-05-11T07:03:09.606Z,12.92
2023-05-11T07:05:57.480Z,12.96
2023-05-11T07:08:46.722Z,13.02
2023-05-11T07:11:35.128Z,13.06
2023-05-11T07:14:22.907Z,13.04
2023-05-11T07:17:10.956Z,13.07
2023-05-11T07:19:58.911Z,13.11
2023-05-11T07:22:48.856Z,13.14
2023-05-11T07:25:38.476Z,13.17
2023-05-11T07:28:26.601Z,13.22
2023-05-11T07:31:14.567Z,13.29
2023-05-11T07:34:02.486Z,13.33
2023-05-11T07:36:50.499Z,13.38
2023-05-11T07:39:38.509Z,13.43
2023-05-11T07:42:27.830Z,13.44
2023-05-11T07:45:15.541Z,13.49
2023-05-11T07:48:03.960Z,13.50
2023-05-11T07:50:51.588Z,13.53
2023-05-11T07:53:39.526Z,13.56
2023-05-11T07:56:27.489Z,13.58
2023-05-11T07:59:16.761Z,13.59
2023-05-11T08:02:04.858Z,13.62
2023-05-11T08:04:52.741Z,13.65
2023-05-11T08:07:41.690Z,13.68
2023-05-11T08:10:29.805Z,13.68
2023-05-11T08:13:17.561Z,13.70
2023-05-11T08:16:08.124Z,13.72
2023-05-11T08:18:56.125Z,13.77
2023-05-11T08:21:46.267Z,13.77
2023-05-11T08:24:34.213Z,13.79
2023-05-11T08:27:22.179Z,13.82
2023-05-11T08:30:11.950Z,13.81
2023-05-11T08:33:13.694Z,13.84
2023-05-11T08:36:13.212Z,13.85
2023-05-11T08:39:01.281Z,13.86
2023-05-11T08:41:51.413Z,13.87
2023-05-11T08:44:41.264Z,13.88
2023-05-11T08:47:29.962Z,13.87
2023-05-11T08:50:19.906Z,13.88
2023-05-11T08:53:08.140Z,13.87
2023-05-11T08:55:58.963Z,13.87
2023-05-11T08:58:48.888Z,13.84
2023-05-11T09:01:38.092Z,13.88
2023-05-11T09:04:27.093Z,13.94
2023-05-11T09:07:17.951Z,13.98
2023-05-11T09:10:06.669Z,14.01
2023-05-11T09:12:54.307Z,14.06
2023-05-11T09:15:42.309Z,14.13
2023-05-11T09:18:30.323Z,14.17
2023-05-11T09:21:18.775Z,14.19
2023-05-11T09:24:08.523Z,14.23
2023-05-11T09:27:11.448Z,14.27
2023-05-11T09:30:10.585Z,14.30
2023-05-11T09:33:00.225Z,14.32
2023-05-11T09:35:48.135Z,14.33
2023-05-11T09:38:36.388Z,14.35
2023-05-11T09:41:26.074Z,14.35
2023-05-11T09:44:15.986Z,14.36
2023-05-11T09:47:13.503Z,14.38
2023-05-11T09:50:16.483Z,14.40
2023-05-11T09:53:04.347Z,14.42
2023-05-11T09:55:54.128Z,14.46
2023-05-11T09:58:52.494Z,14.52
2023-05-11T10:01:41.170Z,14.57
2023-05-11T10:04:31.377Z,14.62
2023-05-11T10:07:27.235Z,14.68
2023-05-11T10:10:16.417Z,14.71
2023-05-11T10:13:04.973Z,14.74
2023-05-11T10:15:55.664Z,14.75
2023-05-11T10:18:45.150Z,14.75
2023-05-11T10:21:33.544Z,14.75
2023-05-11T10:24:21.640Z,14.75
2023-05-11T10:27:09.941Z,14.75
2023-05-11T10:29:59.275Z,14.76
2023-05-11T10:32:48.729Z,14.76
2023-05-11T10:35:39.574Z,14.78
2023-05-11T10:38:28.467Z,14.80
2023-05-11T10:41:30.938Z,14.83
2023-05-11T10:44:46.617Z,14.81
2023-05-11T10:47:54.258Z,14.82
2023-05-11T10:50:57.915Z,14.84
2023-05-11T10:54:00.113Z,14.85
2023-05-11T10:57:13.805Z,14.87
2023-05-11T11:00:43.668Z,14.86
2023-05-11T11:03:33.365Z,14.88
2023-05-11T11:06:25.958Z,14.94
2023-05-11T11:09:14.567Z,14.97
2023-05-11T11:12:11.530Z,14.98
2023-05-11T11:15:00.767Z,15.00
2023-05-11T11:17:49.021Z,15.01
2023-05-11T11:20:50.361Z,14.98
2023-05-11T11:24:01.265Z,14.99
2023-05-11T11:26:50.514Z,15.00
2023-05-11T11:29:40.002Z,14.99
2023-05-11T11:32:29.495Z,14.98
2023-05-11T11:35:49.741Z,14.91
2023-05-11T11:39:01.445Z,14.90
2023-05-11T11:42:02.620Z,14.85
2023-05-11T11:44:50.504Z,14.72
2023-05-11T11:47:39.385Z,14.61
2023-05-11T11:50:29.803Z,14.50
2023-05-11T11:54:08.521Z,14.48
2023-05-11T11:56:57.784Z,14.49
2023-05-11T11:59:48.701Z,14.57
2023-05-11T12:02:43.297Z,14.64
2023-05-11T12:05:32.255Z,14.62
2023-05-11T12:08:21.675Z,14.62
2023-05-11T12:11:09.924Z,14.65
2023-05-11T12:14:00.330Z,14.70
2023-05-11T12:17:03.189Z,14.69
2023-05-11T12:19:51.115Z,14.64
2023-05-11T12:22:38.836Z,14.60
2023-05-11T12:25:26.831Z,14.63
2023-05-11T12:28:14.923Z,14.64
2023-05-11T12:31:04.040Z,14.66
2023-05-11T12:33:53.156Z,14.64
2023-05-11T12:36:41.245Z,14.65
2023-05-11T12:39:29.593Z,14.56
2023-05-11T12:42:20.585Z,14.62
2023-05-11T12:45:09.992Z,14.62
2023-05-11T12:47:59.702Z,14.60
2023-05-11T12:50:48.260Z,14.57
2023-05-11T12:53:37.616Z,14.56
2023-05-11T12:56:25.547Z,14.51
2023-05-11T12:59:30.212Z,14.50
2023-05-11T13:02:19.481Z,14.49
2023-05-11T13:05:19.436Z,14.47
2023-05-11T13:08:08.577Z,14.46
2023-05-11T13:10:56.654Z,14.42
2023-05-11T13:13:44.897Z,14.42
2023-05-11T13:16:34.059Z,14.43
2023-05-11T13:19:30.065Z,14.42
2023-05-11T13:22:21.300Z,14.44
2023-05-11T13:25:10.097Z,14.47
2023-05-11T13:27:57.777Z,14.45
2023-05-11T13:30:46.646Z,14.47
2023-05-11T13:33:34.762Z,14.52
2023-05-11T13:36:22.843Z,14.57
2023-05-11T13:39:12.221Z,14.56
2023-05-11T13:41:59.896Z,14.57
2023-05-11T13:44:47.953Z,14.58
2023-05-11T13:47:37.241Z,14.55
2023-05-11T13:50:26.054Z,14.53
2023-05-11T13:53:14.896Z,14.50
2023-05-11T13:56:04.384Z,14.48
2023-05-11T13:58:52.408Z,14.41
2023-05-11T14:01:40.207Z,14.37
2023-05-11T14:04:28.074Z,14.22
2023-05-11T14:07:16.309Z,14.25
2023-05-11T14:10:04.236Z,14.24
2023-05-11T14:12:53.425Z,14.23
2023-05-11T14:15:41.455Z,14.19
2023-05-11T14:18:29.567Z,14.15
2023-05-11T14:21:17.608Z,14.12
2023-05-11T14:24:12.180Z,14.12
2023-05-11T14:27:00.763Z,14.12
2023-05-11T14:29:51.172Z,14.12
2023-05-11T14:32:38.990Z,14.13
2023-05-11T14:35:26.869Z,14.16
2023-05-11T14:38:14.854Z,14.20
2023-05-11T14:41:03.396Z,14.25
2023-05-11T14:43:51.337Z,14.30
2023-05-11T14:46:40.873Z,14.36
2023-05-11T14:49:28.843Z,14.45
2023-05-11T14:52:16.562Z,14.51
2023-05-11T14:55:05.150Z,14.56
2023-05-11T14:57:53.689Z,14.60
2023-05-11T15:00:41.588Z,14.66
2023-05-11T15:03:31.054Z,14.71
2023-05-11T15:06:21.585Z,14.74
2023-05-11T15:09:09.834Z,14.77
2023-05-11T15:11:59.700Z,14.77
2023-05-11T15:14:47.669Z,14.75
2023-05-11T15:17:36.186Z,14.73
2023-05-11T15:20:25.469Z,14.69
2023-05-11T15:23:16.616Z,14.67
2023-05-11T15:26:04.784Z,14.65
2023-05-11T15:28:52.772Z,14.65
2023-05-11T15:31:40.709Z,14.66
2023-05-11T15:34:28.582Z,14.67
2023-05-11T15:37:17.843Z,14.68
2023-05-11T15:40:06.494Z,14.68
2023-05-11T15:42:58.787Z,14.68
2023-05-11T15:45:47.086Z,14.66
2023-05-11T15:48:35.392Z,14.66
2023-05-11T15:51:23.246Z,14.63
2023-05-11T15:54:12.625Z,14.62
2023-05-11T15:57:00.507Z,14.61
2023-05-11T15:59:48.781Z,14.56
2023-05-11T16:02:36.562Z,14.54
2023-05-11T16:05:24.620Z,14.50
2023-05-11T16:08:12.310Z,14.47
2023-05-11T16:11:01.704Z,14.43
2023-05-11T16:13:49.471Z,14.39
2023-05-11T16:16:37.826Z,14.35
2023-05-11T16:19:27.817Z,14.31
2023-05-11T16:22:15.586Z,14.20
2023-05-11T16:25:03.608Z,13.96
2023-05-11T16:27:52.958Z,13.94
2023-05-11T16:30:41.019Z,13.95
2023-05-11T16:33:29.057Z,13.95
2023-05-11T16:36:16.912Z,13.90
2023-05-11T16:39:04.855Z,13.85
2023-05-11T16:41:52.828Z,13.84
2023-05-11T16:44:42.036Z,13.77
2023-05-11T16:47:29.782Z,13.72
2023-05-11T16:50:18.785Z,13.73
2023-05-11T16:53:06.989Z,13.63
2023-05-11T16:55:55.895Z,13.55
2023-05-11T16:58:44.466Z,13.53
2023-05-11T17:01:35.281Z,13.55
2023-05-11T17:04:23.073Z,13.48
2023-05-11T17:07:11.614Z,13.43
2023-05-11T17:09:59.655Z,13.22
2023-05-11T17:12:47.984Z,13.19
2023-05-11T17:15:35.831Z,13.07
2023-05-11T17:18:25.278Z,12.95
2023-05-11T17:21:13.527Z,12.69
2023-05-11T17:24:01.300Z,12.41
2023-05-11T17:26:49.413Z,12.38
2023-05-11T17:29:37.358Z,12.31
2023-05-11T17:32:25.776Z,12.30
2023-05-11T17:35:15.355Z,12.26
2023-05-11T17:38:04.318Z,12.35
2023-05-11T17:40:52.276Z,12.42
2023-05-11T17:43:40.165Z,12.50
2023-05-11T17:46:29.847Z,12.53
2023-05-11T17:49:18.053Z,12.48
2023-05-11T17:52:08.524Z,12.45
2023-05-11T17:54:56.573Z,12.39
2023-05-11T17:57:44.287Z,12.38
2023-05-11T18:00:32.476Z,12.42
2023-05-11T18:03:20.430Z,12.38
2023-05-11T18:06:08.478Z,12.33
2023-05-11T18:08:57.581Z,12.34
2023-05-11T18:11:45.278Z,12.29
2023-05-11T18:14:33.257Z,12.25
2023-05-11T18:17:21.920Z,12.29
2023-05-11T18:20:10.328Z,12.36
2023-05-11T18:22:58.384Z,12.40
2023-05-11T18:25:48.335Z,12.41
2023-05-11T18:28:36.467Z,12.40
2023-05-11T18:31:24.677Z,12.36
2023-05-11T18:34:12.362Z,12.32
2023-05-11T18:37:01.351Z,12.22
2023-05-11T18:39:50.209Z,12.20
2023-05-11T18:42:39.660Z,12.14
2023-05-11T18:45:30.256Z,12.09
2023-05-11T18:48:19.627Z,12.11
2023-05-11T18:51:08.083Z,12.13
2023-05-11T18:53:56.098Z,12.16
2023-05-11T18:56:44.075Z,12.09
2023-05-11T18:59:33.730Z,12.06
2023-05-11T19:02:21.747Z,12.04
2023-05-11T19:05:11.052Z,12.05
2023-05-11T19:07:59.096Z,11.96
2023-05-11T19:10:48.003Z,11.94
2023-05-11T19:13:36.745Z,11.91
2023-05-11T19:16:26.184Z,11.85
2023-05-11T19:19:14.073Z,11.80
2023-05-11T19:22:02.089Z,11.80
2023-05-11T19:24:50.137Z,11.79
2023-05-11T19:27:38.076Z,11.81
2023-05-11T19:30:26.294Z,11.85
2023-05-11T19:33:15.803Z,11.81
2023-05-11T19:36:04.070Z,11.77
2023-05-11T19:38:52.449Z,11.75
2023-05-11T19:41:40.274Z,11.70
2023-05-11T19:44:32.685Z,11.70
2023-05-11T19:47:20.407Z,11.70
2023-05-11T19:50:11.029Z,11.72
2023-05-11T19:52:58.946Z,11.69
2023-05-11T19:55:48.282Z,11.69
2023-05-11T19:58:36.597Z,11.70
2023-05-11T20:01:24.470Z,11.68
2023-05-11T20:04:14.728Z,11.64
2023-05-11T20:07:04.254Z,11.62
2023-05-11T20:09:52.238Z,11.64
2023-05-11T20:12:40.217Z,11.63
2023-05-11T20:15:28.006Z,11.60
2023-05-11T20:18:16.253Z,11.57
2023-05-11T20:21:04.330Z,11.57
2023-05-11T20:23:53.431Z,11.54
2023-05-11T20:26:41.144Z,11.53
2023-05-11T20:29:29.217Z,11.53
2023-05-11T20:32:18.388Z,11.54
2023-05-11T20:35:07.536Z,11.50
2023-05-11T20:37:55.532Z,11.50
2023-05-11T20:40:44.987Z,11.48
2023-05-11T20:43:32.763Z,11.45
2023-05-11T20:46:20.949Z,11.45
2023-05-11T20:49:09.128Z,11.43
2023-05-11T20:51:56.853Z,11.43
2023-05-11T20:54:44.828Z,11.43
2023-05-11T20:57:37.215Z,11.42
2023-05-11T21:00:25.493Z,11.41
2023-05-11T21:03:13.861Z,11.40
2023-05-11T21:06:01.851Z,11.38
2023-05-11T21:08:50.137Z,11.37
2023-05-11T21:11:37.783Z,11.37
2023-05-11T21:14:27.393Z,11.35
2023-05-11T21:17:15.747Z,11.36
2023-05-11T21:20:04.858Z,11.36
2023-05-11T21:22:53.717Z,11.33
2023-05-11T21:25:41.820Z,11.32
2023-05-11T21:28:34.582Z,11.32
2023-05-11T21:31:23.721Z,11.30
2023-05-11T21:34:12.196Z,11.28
2023-05-11T21:37:00.547Z,11.27
2023-05-11T21:39:49.174Z,11.26
2023-05-11T21:42:36.780Z,11.24
2023-05-11T21:45:24.870Z,11.23
2023-05-11T21:48:14.209Z,11.21
2023-05-11T21:51:01.823Z,11.20
2023-05-11T21:53:50.223Z,11.20
2023-05-11T21:56:38.313Z,11.18
2023-05-11T21:59:26.814Z,11.17
2023-05-11T22:02:14.641Z,11.16
2023-05-11T22:05:03.991Z,11.15
2023-05-11T22:07:53.971Z,11.14
2023-05-11T22:10:45.782Z,11.13
2023-05-11T22:13:34.067Z,11.13
2023-05-11T22:16:21.693Z,11.12
2023-05-11T22:19:10.377Z,11.12
2023-05-11T22:21:59.848Z,11.10
2023-05-11T22:24:47.704Z,11.09
2023-05-11T22:27:36.016Z,11.08
2023-05-11T22:30:23.942Z,11.08
2023-05-11T22:33:11.818Z,11.06
2023-05-11T22:36:00.162Z,11.06
2023-05-11T22:38:49.346Z,11.06
2023-05-11T22:41:37.046Z,11.07
2023-05-11T22:44:24.983Z,11.02
2023-05-11T22:47:13.161Z,10.99
2023-05-11T22:50:01.589Z,10.99
2023-05-11T22:52:49.359Z,10.98
2023-05-11T22:55:38.677Z,10.98
2023-05-11T22:58:27.003Z,10.97
2023-05-11T23:01:15.017Z,10.94
2023-05-11T23:04:02.879Z,10.94
2023-05-11T23:06:50.560Z,10.94
2023-05-11T23:09:38.595Z,10.91
2023-05-11T23:12:43.035Z,10.90
2023-05-11T23:15:31.998Z,10.90
2023-05-11T23:18:19.821Z,10.91
2023-05-11T23:21:08.327Z,10.87
2023-05-11T23:23:56.212Z,10.91
2023-05-11T23:26:44.261Z,10.87
2023-05-11T23:29:33.549Z,10.90
2023-05-11T23:32:21.312Z,10.80
2023-05-11T23:35:10.807Z,10.83
2023-05-11T23:37:58.626Z,10.83
2023-05-11T23:40:46.571Z,10.82
2023-05-11T23:43:34.797Z,10.82
2023-05-11T23:46:23.870Z,10.85
2023-05-11T23:49:11.689Z,10.86
2023-05-11T23:51:59.712Z,10.81
2023-05-11T23:54:49.438Z,10.79
2023-05-11T23:57:37.722Z,10.84
